sensor_id;sensor_type;location;lat;lon;timestamp;P1;durP1;ratioP1;P2;durP2;ratioP2
55067;SDS011;40965;52.368;9.712;2024-02-21T00:01:51;31.40;;;13.30;;
55067;SDS011;40965;52.368;9.712;2024-02-21T00:04:18;31.08;;;13.23;;
55067;SDS011;40965;52.368;9.712;2024-02-21T00:06:44;29.27;;;13.18;;
55067;SDS011;40965;52.368;9.712;2024-02-21T00:09:11;24.30;;;12.52;;
55067;SDS011;40965;52.368;9.712;2024-02-21T00:11:38;25.23;;;11.90;;
55067;SDS011;40965;52.368;9.712;2024-02-21T00:14:05;24.02;;;13.85;;
55067;SDS011;40965;52.368;9.712;2024-02-21T00:16:32;26.40;;;12.05;;
55067;SDS011;40965;52.368;9.712;2024-02-21T00:18:58;23.52;;;12.93;;
55067;SDS011;40965;52.368;9.712;2024-02-21T00:21:25;22.65;;;13.60;;
55067;SDS011;40965;52.368;9.712;2024-02-21T00:23:52;33.13;;;13.35;;
55067;SDS011;40965;52.368;9.712;2024-02-21T00:26:18;26.20;;;12.45;;
55067;SDS011;40965;52.368;9.712;2024-02-21T00:28:45;27.42;;;13.55;;
55067;SDS011;40965;52.368;9.712;2024-02-21T00:31:11;26.33;;;13.20;;
55067;SDS011;40965;52.368;9.712;2024-02-21T00:33:38;34.20;;;15.07;;
55067;SDS011;40965;52.368;9.712;2024-02-21T00:36:04;29.35;;;12.93;;
55067;SDS011;40965;52.368;9.712;2024-02-21T00:38:31;30.85;;;13.38;;
55067;SDS011;40965;52.368;9.712;2024-02-21T00:41:00;34.47;;;15.35;;
55067;SDS011;40965;52.368;9.712;2024-02-21T00:43:27;30.30;;;13.38;;
55067;SDS011;40965;52.368;9.712;2024-02-21T00:45:53;28.90;;;13.52;;
55067;SDS011;40965;52.368;9.712;2024-02-21T00:48:20;28.52;;;13.57;;
55067;SDS011;40965;52.368;9.712;2024-02-21T00:50:46;30.88;;;14.05;;
55067;SDS011;40965;52.368;9.712;2024-02-21T00:53:13;29.75;;;13.77;;
55067;SDS011;40965;52.368;9.712;2024-02-21T00:55:39;22.77;;;12.70;;
55067;SDS011;40965;52.368;9.712;2024-02-21T00:58:08;30.23;;;13.75;;
55067;SDS011;40965;52.368;9.712;2024-02-21T01:00:35;29.33;;;14.50;;
55067;SDS011;40965;52.368;9.712;2024-02-21T01:03:02;24.38;;;14.50;;
55067;SDS011;40965;52.368;9.712;2024-02-21T01:05:29;23.50;;;13.02;;
55067;SDS011;40965;52.368;9.712;2024-02-21T01:07:55;28.95;;;14.60;;
55067;SDS011;40965;52.368;9.712;2024-02-21T01:10:22;25.08;;;14.60;;
55067;SDS011;40965;52.368;9.712;2024-02-21T01:12:49;26.00;;;13.70;;
55067;SDS011;40965;52.368;9.712;2024-02-21T01:15:16;28.08;;;14.57;;
55067;SDS011;40965;52.368;9.712;2024-02-21T01:17:43;22.75;;;13.23;;
55067;SDS011;40965;52.368;9.712;2024-02-21T01:20:09;24.83;;;14.15;;
55067;SDS011;40965;52.368;9.712;2024-02-21T01:22:36;31.05;;;14.15;;
55067;SDS011;40965;52.368;9.712;2024-02-21T01:25:03;25.60;;;14.05;;
55067;SDS011;40965;52.368;9.712;2024-02-21T01:27:30;30.20;;;14.80;;
55067;SDS011;40965;52.368;9.712;2024-02-21T01:29:57;23.77;;;14.38;;
55067;SDS011;40965;52.368;9.712;2024-02-21T01:32:23;29.95;;;14.55;;
55067;SDS011;40965;52.368;9.712;2024-02-21T01:34:50;27.10;;;15.25;;
55067;SDS011;40965;52.368;9.712;2024-02-21T01:37:17;31.80;;;15.23;;
55067;SDS011;40965;52.368;9.712;2024-02-21T01:39:44;28.88;;;16.25;;
55067;SDS011;40965;52.368;9.712;2024-02-21T01:42:10;26.98;;;14.10;;
55067;SDS011;40965;52.368;9.712;2024-02-21T01:44:37;26.02;;;14.45;;
55067;SDS011;40965;52.368;9.712;2024-02-21T01:47:03;24.90;;;13.35;;
55067;SDS011;40965;52.368;9.712;2024-02-21T01:49:30;27.27;;;13.98;;
55067;SDS011;40965;52.368;9.712;2024-02-21T01:51:57;27.52;;;12.95;;
55067;SDS011;40965;52.368;9.712;2024-02-21T01:54:23;37.50;;;15.20;;
55067;SDS011;40965;52.368;9.712;2024-02-21T01:56:53;33.60;;;15.38;;
55067;SDS011;40965;52.368;9.712;2024-02-21T01:59:21;25.67;;;14.10;;
55067;SDS011;40965;52.368;9.712;2024-02-21T02:01:48;26.80;;;12.63;;
55067;SDS011;40965;52.368;9.712;2024-02-21T02:04:16;25.98;;;13.05;;
55067;SDS011;40965;52.368;9.712;2024-02-21T02:06:43;22.77;;;13.23;;
55067;SDS011;40965;52.368;9.712;2024-02-21T02:09:09;25.73;;;13.05;;
55067;SDS011;40965;52.368;9.712;2024-02-21T02:11:36;23.60;;;13.63;;
55067;SDS011;40965;52.368;9.712;2024-02-21T02:14:03;23.92;;;13.75;;
55067;SDS011;40965;52.368;9.712;2024-02-21T02:16:29;25.75;;;12.57;;
55067;SDS011;40965;52.368;9.712;2024-02-21T02:18:56;30.95;;;13.93;;
55067;SDS011;40965;52.368;9.712;2024-02-21T02:21:32;26.98;;;16.02;;
55067;SDS011;40965;52.368;9.712;2024-02-21T02:24:06;24.30;;;14.17;;
55067;SDS011;40965;52.368;9.712;2024-02-21T02:26:33;26.05;;;13.93;;
55067;SDS011;40965;52.368;9.712;2024-02-21T02:29:01;23.63;;;12.88;;
55067;SDS011;40965;52.368;9.712;2024-02-21T02:31:28;29.40;;;14.23;;
55067;SDS011;40965;52.368;9.712;2024-02-21T02:33:53;35.92;;;15.90;;
55067;SDS011;40965;52.368;9.712;2024-02-21T02:36:20;30.90;;;13.75;;
55067;SDS011;40965;52.368;9.712;2024-02-21T02:38:46;28.67;;;14.07;;
55067;SDS011;40965;52.368;9.712;2024-02-21T02:41:13;22.38;;;13.90;;
55067;SDS011;40965;52.368;9.712;2024-02-21T02:43:39;22.02;;;12.82;;
55067;SDS011;40965;52.368;9.712;2024-02-21T02:46:06;31.15;;;14.38;;
55067;SDS011;40965;52.368;9.712;2024-02-21T02:48:32;26.25;;;15.70;;
55067;SDS011;40965;52.368;9.712;2024-02-21T02:50:59;32.67;;;16.23;;
55067;SDS011;40965;52.368;9.712;2024-02-21T02:53:26;23.23;;;12.80;;
55067;SDS011;40965;52.368;9.712;2024-02-21T02:55:52;23.52;;;14.23;;
55067;SDS011;40965;52.368;9.712;2024-02-21T02:58:19;25.48;;;13.35;;
55067;SDS011;40965;52.368;9.712;2024-02-21T03:00:45;21.95;;;13.32;;
55067;SDS011;40965;52.368;9.712;2024-02-21T03:03:13;26.30;;;13.50;;
55067;SDS011;40965;52.368;9.712;2024-02-21T03:05:39;19.80;;;13.48;;
55067;SDS011;40965;52.368;9.712;2024-02-21T03:08:09;21.92;;;13.65;;
55067;SDS011;40965;52.368;9.712;2024-02-21T03:10:35;30.65;;;13.70;;
55067;SDS011;40965;52.368;9.712;2024-02-21T03:13:02;26.20;;;14.50;;
55067;SDS011;40965;52.368;9.712;2024-02-21T03:15:29;26.33;;;12.82;;
55067;SDS011;40965;52.368;9.712;2024-02-21T03:17:56;22.05;;;13.02;;
55067;SDS011;40965;52.368;9.712;2024-02-21T03:20:22;25.33;;;13.02;;
55067;SDS011;40965;52.368;9.712;2024-02-21T03:22:49;31.80;;;14.45;;
55067;SDS011;40965;52.368;9.712;2024-02-21T03:25:16;22.92;;;13.30;;
55067;SDS011;40965;52.368;9.712;2024-02-21T03:27:42;22.75;;;13.20;;
55067;SDS011;40965;52.368;9.712;2024-02-21T03:30:09;28.02;;;14.98;;
55067;SDS011;40965;52.368;9.712;2024-02-21T03:32:37;29.55;;;14.48;;
55067;SDS011;40965;52.368;9.712;2024-02-21T03:35:05;19.83;;;12.45;;
55067;SDS011;40965;52.368;9.712;2024-02-21T03:37:32;21.92;;;12.57;;
55067;SDS011;40965;52.368;9.712;2024-02-21T03:39:58;24.73;;;14.13;;
55067;SDS011;40965;52.368;9.712;2024-02-21T03:42:25;26.70;;;13.65;;
55067;SDS011;40965;52.368;9.712;2024-02-21T03:44:54;25.05;;;13.13;;
55067;SDS011;40965;52.368;9.712;2024-02-21T03:47:21;25.60;;;13.77;;
55067;SDS011;40965;52.368;9.712;2024-02-21T03:49:47;25.77;;;13.98;;
55067;SDS011;40965;52.368;9.712;2024-02-21T03:52:16;21.90;;;12.60;;
55067;SDS011;40965;52.368;9.712;2024-02-21T03:54:42;29.15;;;14.23;;
55067;SDS011;40965;52.368;9.712;2024-02-21T03:57:09;27.70;;;13.88;;
55067;SDS011;40965;52.368;9.712;2024-02-21T03:59:36;22.95;;;14.50;;
55067;SDS011;40965;52.368;9.712;2024-02-21T04:02:04;22.45;;;13.00;;
55067;SDS011;40965;52.368;9.712;2024-02-21T04:04:33;25.95;;;12.60;;
55067;SDS011;40965;52.368;9.712;2024-02-21T04:07:02;25.02;;;12.20;;
55067;SDS011;40965;52.368;9.712;2024-02-21T04:09:31;25.58;;;13.40;;
55067;SDS011;40965;52.368;9.712;2024-02-21T04:11:59;23.42;;;13.13;;
55067;SDS011;40965;52.368;9.712;2024-02-21T04:14:26;23.90;;;12.77;;
55067;SDS011;40965;52.368;9.712;2024-02-21T04:16:53;26.27;;;12.30;;
55067;SDS011;40965;52.368;9.712;2024-02-21T04:19:19;26.63;;;13.45;;
55067;SDS011;40965;52.368;9.712;2024-02-21T04:21:46;27.38;;;14.02;;
55067;SDS011;40965;52.368;9.712;2024-02-21T04:24:12;24.92;;;11.40;;
55067;SDS011;40965;52.368;9.712;2024-02-21T04:26:39;30.92;;;12.82;;
55067;SDS011;40965;52.368;9.712;2024-02-21T04:29:05;23.48;;;13.00;;
55067;SDS011;40965;52.368;9.712;2024-02-21T04:31:32;23.92;;;15.40;;
55067;SDS011;40965;52.368;9.712;2024-02-21T04:33:59;27.52;;;13.73;;
55067;SDS011;40965;52.368;9.712;2024-02-21T04:36:25;29.02;;;13.52;;
55067;SDS011;40965;52.368;9.712;2024-02-21T04:38:52;27.20;;;14.35;;
55067;SDS011;40965;52.368;9.712;2024-02-21T04:41:19;24.73;;;13.85;;
55067;SDS011;40965;52.368;9.712;2024-02-21T04:43:45;31.10;;;14.48;;
55067;SDS011;40965;52.368;9.712;2024-02-21T04:46:13;28.30;;;14.23;;
55067;SDS011;40965;52.368;9.712;2024-02-21T04:48:40;29.98;;;13.88;;
55067;SDS011;40965;52.368;9.712;2024-02-21T04:51:07;27.65;;;14.60;;
55067;SDS011;40965;52.368;9.712;2024-02-21T04:53:34;27.13;;;13.90;;
55067;SDS011;40965;52.368;9.712;2024-02-21T04:56:00;23.98;;;13.85;;
55067;SDS011;40965;52.368;9.712;2024-02-21T04:58:29;26.67;;;14.10;;
55067;SDS011;40965;52.368;9.712;2024-02-21T05:00:56;28.30;;;16.65;;
55067;SDS011;40965;52.368;9.712;2024-02-21T05:03:23;30.27;;;14.88;;
55067;SDS011;40965;52.368;9.712;2024-02-21T05:05:49;32.67;;;15.13;;
55067;SDS011;40965;52.368;9.712;2024-02-21T05:08:18;32.05;;;15.35;;
55067;SDS011;40965;52.368;9.712;2024-02-21T05:10:47;33.33;;;15.80;;
55067;SDS011;40965;52.368;9.712;2024-02-21T05:13:14;30.42;;;14.73;;
55067;SDS011;40965;52.368;9.712;2024-02-21T05:15:40;24.38;;;15.00;;
55067;SDS011;40965;52.368;9.712;2024-02-21T05:18:07;29.13;;;14.23;;
55067;SDS011;40965;52.368;9.712;2024-02-21T05:20:33;27.45;;;15.35;;
55067;SDS011;40965;52.368;9.712;2024-02-21T05:23:00;29.15;;;15.23;;
55067;SDS011;40965;52.368;9.712;2024-02-21T05:25:27;31.08;;;15.13;;
55067;SDS011;40965;52.368;9.712;2024-02-21T05:27:54;23.58;;;14.20;;
55067;SDS011;40965;52.368;9.712;2024-02-21T05:30:21;27.58;;;15.32;;
55067;SDS011;40965;52.368;9.712;2024-02-21T05:32:49;24.58;;;14.15;;
55067;SDS011;40965;52.368;9.712;2024-02-21T05:35:15;28.98;;;14.85;;
55067;SDS011;40965;52.368;9.712;2024-02-21T05:37:42;25.90;;;13.73;;
55067;SDS011;40965;52.368;9.712;2024-02-21T05:40:09;29.13;;;14.73;;
55067;SDS011;40965;52.368;9.712;2024-02-21T05:42:38;28.55;;;15.35;;
55067;SDS011;40965;52.368;9.712;2024-02-21T05:45:05;22.10;;;13.38;;
55067;SDS011;40965;52.368;9.712;2024-02-21T05:47:31;22.45;;;13.13;;
55067;SDS011;40965;52.368;9.712;2024-02-21T05:49:58;26.15;;;13.85;;
55067;SDS011;40965;52.368;9.712;2024-02-21T05:52:25;21.10;;;13.07;;
55067;SDS011;40965;52.368;9.712;2024-02-21T05:54:51;21.23;;;13.50;;
55067;SDS011;40965;52.368;9.712;2024-02-21T05:57:18;26.42;;;14.52;;
55067;SDS011;40965;52.368;9.712;2024-02-21T05:59:44;22.63;;;14.48;;
55067;SDS011;40965;52.368;9.712;2024-02-21T06:02:12;25.40;;;13.90;;
55067;SDS011;40965;52.368;9.712;2024-02-21T06:04:39;24.08;;;12.82;;
55067;SDS011;40965;52.368;9.712;2024-02-21T06:07:07;24.67;;;13.95;;
55067;SDS011;40965;52.368;9.712;2024-02-21T06:09:34;26.30;;;14.70;;
55067;SDS011;40965;52.368;9.712;2024-02-21T06:12:04;23.45;;;13.93;;
55067;SDS011;40965;52.368;9.712;2024-02-21T06:14:34;24.80;;;13.23;;
55067;SDS011;40965;52.368;9.712;2024-02-21T06:17:00;24.45;;;14.27;;
55067;SDS011;40965;52.368;9.712;2024-02-21T06:19:27;24.45;;;13.85;;
55067;SDS011;40965;52.368;9.712;2024-02-21T06:21:54;23.40;;;12.85;;
55067;SDS011;40965;52.368;9.712;2024-02-21T06:24:20;25.38;;;15.85;;
55067;SDS011;40965;52.368;9.712;2024-02-21T06:26:47;21.85;;;14.10;;
55067;SDS011;40965;52.368;9.712;2024-02-21T06:29:14;25.50;;;13.60;;
55067;SDS011;40965;52.368;9.712;2024-02-21T06:31:40;21.08;;;13.30;;
55067;SDS011;40965;52.368;9.712;2024-02-21T06:34:07;26.33;;;14.18;;
55067;SDS011;40965;52.368;9.712;2024-02-21T06:36:33;25.27;;;14.15;;
55067;SDS011;40965;52.368;9.712;2024-02-21T06:39:00;21.98;;;13.95;;
55067;SDS011;40965;52.368;9.712;2024-02-21T06:41:32;30.23;;;13.65;;
55067;SDS011;40965;52.368;9.712;2024-02-21T06:44:02;21.13;;;13.90;;
55067;SDS011;40965;52.368;9.712;2024-02-21T06:46:29;22.95;;;12.80;;
55067;SDS011;40965;52.368;9.712;2024-02-21T06:48:57;24.63;;;13.82;;
55067;SDS011;40965;52.368;9.712;2024-02-21T06:51:28;30.13;;;14.23;;
55067;SDS011;40965;52.368;9.712;2024-02-21T06:53:55;21.50;;;13.35;;
55067;SDS011;40965;52.368;9.712;2024-02-21T06:56:23;29.75;;;14.07;;
55067;SDS011;40965;52.368;9.712;2024-02-21T06:58:57;25.80;;;12.68;;
55067;SDS011;40965;52.368;9.712;2024-02-21T07:01:24;23.65;;;13.95;;
55067;SDS011;40965;52.368;9.712;2024-02-21T07:03:51;24.08;;;13.63;;
55067;SDS011;40965;52.368;9.712;2024-02-21T07:06:17;23.60;;;14.07;;
55067;SDS011;40965;52.368;9.712;2024-02-21T07:08:44;21.13;;;12.63;;
55067;SDS011;40965;52.368;9.712;2024-02-21T07:11:14;23.13;;;14.00;;
55067;SDS011;40965;52.368;9.712;2024-02-21T07:13:40;20.45;;;13.98;;
55067;SDS011;40965;52.368;9.712;2024-02-21T07:16:07;25.08;;;13.05;;
55067;SDS011;40965;52.368;9.712;2024-02-21T07:18:34;24.92;;;12.40;;
55067;SDS011;40965;52.368;9.712;2024-02-21T07:21:00;29.02;;;11.60;;
55067;SDS011;40965;52.368;9.712;2024-02-21T07:23:27;19.85;;;12.38;;
55067;SDS011;40965;52.368;9.712;2024-02-21T07:25:53;21.45;;;12.68;;
55067;SDS011;40965;52.368;9.712;2024-02-21T07:28:20;25.17;;;12.38;;
55067;SDS011;40965;52.368;9.712;2024-02-21T07:30:46;20.52;;;12.30;;
55067;SDS011;40965;52.368;9.712;2024-02-21T07:33:13;23.88;;;12.75;;
55067;SDS011;40965;52.368;9.712;2024-02-21T07:35:40;21.80;;;11.32;;
55067;SDS011;40965;52.368;9.712;2024-02-21T07:38:07;19.63;;;12.20;;
55067;SDS011;40965;52.368;9.712;2024-02-21T07:40:37;17.10;;;11.93;;
55067;SDS011;40965;52.368;9.712;2024-02-21T07:43:04;22.63;;;13.07;;
55067;SDS011;40965;52.368;9.712;2024-02-21T07:45:30;18.95;;;11.52;;
55067;SDS011;40965;52.368;9.712;2024-02-21T07:47:57;15.43;;;11.27;;
55067;SDS011;40965;52.368;9.712;2024-02-21T07:50:23;20.33;;;11.05;;
55067;SDS011;40965;52.368;9.712;2024-02-21T07:52:50;21.58;;;12.07;;
55067;SDS011;40965;52.368;9.712;2024-02-21T07:55:16;16.00;;;11.10;;
55067;SDS011;40965;52.368;9.712;2024-02-21T07:57:43;21.85;;;12.50;;
55067;SDS011;40965;52.368;9.712;2024-02-21T08:00:10;23.73;;;12.30;;
55067;SDS011;40965;52.368;9.712;2024-02-21T08:02:45;27.00;;;12.15;;
55067;SDS011;40965;52.368;9.712;2024-02-21T08:05:15;23.77;;;10.88;;
55067;SDS011;40965;52.368;9.712;2024-02-21T08:07:41;16.77;;;9.63;;
55067;SDS011;40965;52.368;9.712;2024-02-21T08:10:08;18.50;;;11.23;;
55067;SDS011;40965;52.368;9.712;2024-02-21T08:12:34;20.13;;;11.88;;
55067;SDS011;40965;52.368;9.712;2024-02-21T08:15:02;20.13;;;10.88;;
55067;SDS011;40965;52.368;9.712;2024-02-21T08:17:29;24.52;;;10.07;;
55067;SDS011;40965;52.368;9.712;2024-02-21T08:19:56;16.38;;;10.43;;
55067;SDS011;40965;52.368;9.712;2024-02-21T08:22:22;21.42;;;10.35;;
55067;SDS011;40965;52.368;9.712;2024-02-21T08:24:49;17.55;;;11.18;;
55067;SDS011;40965;52.368;9.712;2024-02-21T08:27:15;23.02;;;10.40;;
55067;SDS011;40965;52.368;9.712;2024-02-21T08:29:42;19.55;;;10.48;;
55067;SDS011;40965;52.368;9.712;2024-02-21T08:32:08;15.77;;;10.05;;
55067;SDS011;40965;52.368;9.712;2024-02-21T08:34:34;19.20;;;9.75;;
55067;SDS011;40965;52.368;9.712;2024-02-21T08:37:01;17.58;;;10.75;;
55067;SDS011;40965;52.368;9.712;2024-02-21T08:39:27;20.52;;;9.90;;
55067;SDS011;40965;52.368;9.712;2024-02-21T08:41:55;23.10;;;10.75;;
55067;SDS011;40965;52.368;9.712;2024-02-21T08:44:23;22.70;;;10.27;;
55067;SDS011;40965;52.368;9.712;2024-02-21T08:46:50;13.85;;;8.70;;
55067;SDS011;40965;52.368;9.712;2024-02-21T08:49:17;17.48;;;9.68;;
55067;SDS011;40965;52.368;9.712;2024-02-21T08:51:44;21.35;;;8.50;;
55067;SDS011;40965;52.368;9.712;2024-02-21T08:54:11;19.98;;;8.25;;
55067;SDS011;40965;52.368;9.712;2024-02-21T08:56:38;19.77;;;8.68;;
55067;SDS011;40965;52.368;9.712;2024-02-21T08:59:04;16.52;;;8.75;;
55067;SDS011;40965;52.368;9.712;2024-02-21T09:01:31;12.75;;;8.00;;
55067;SDS011;40965;52.368;9.712;2024-02-21T09:03:59;14.35;;;7.68;;
55067;SDS011;40965;52.368;9.712;2024-02-21T09:06:25;13.35;;;7.60;;
55067;SDS011;40965;52.368;9.712;2024-02-21T09:08:53;16.02;;;7.60;;
55067;SDS011;40965;52.368;9.712;2024-02-21T09:11:20;20.25;;;8.05;;
55067;SDS011;40965;52.368;9.712;2024-02-21T09:13:46;11.15;;;6.25;;
55067;SDS011;40965;52.368;9.712;2024-02-21T09:16:15;12.38;;;6.78;;
55067;SDS011;40965;52.368;9.712;2024-02-21T09:18:42;10.82;;;6.63;;
55067;SDS011;40965;52.368;9.712;2024-02-21T09:21:12;9.63;;;5.65;;
55067;SDS011;40965;52.368;9.712;2024-02-21T09:23:38;13.55;;;5.47;;
55067;SDS011;40965;52.368;9.712;2024-02-21T09:26:05;10.95;;;5.38;;
55067;SDS011;40965;52.368;9.712;2024-02-21T09:28:31;14.75;;;6.32;;
55067;SDS011;40965;52.368;9.712;2024-02-21T09:30:59;14.63;;;6.15;;
55067;SDS011;40965;52.368;9.712;2024-02-21T09:33:27;7.40;;;5.68;;
55067;SDS011;40965;52.368;9.712;2024-02-21T09:35:53;13.25;;;6.03;;
55067;SDS011;40965;52.368;9.712;2024-02-21T09:38:19;12.70;;;5.78;;
55067;SDS011;40965;52.368;9.712;2024-02-21T09:40:46;12.77;;;6.22;;
55067;SDS011;40965;52.368;9.712;2024-02-21T09:43:13;12.07;;;5.80;;
55067;SDS011;40965;52.368;9.712;2024-02-21T09:45:46;7.95;;;4.78;;
55067;SDS011;40965;52.368;9.712;2024-02-21T09:51:11;8.73;;;4.93;;
55067;SDS011;40965;52.368;9.712;2024-02-21T09:53:40;12.23;;;5.43;;
55067;SDS011;40965;52.368;9.712;2024-02-21T09:56:09;8.40;;;4.88;;
55067;SDS011;40965;52.368;9.712;2024-02-21T09:58:36;9.82;;;4.68;;
55067;SDS011;40965;52.368;9.712;2024-02-21T10:01:04;5.82;;;4.25;;
55067;SDS011;40965;52.368;9.712;2024-02-21T10:03:32;7.97;;;4.07;;
55067;SDS011;40965;52.368;9.712;2024-02-21T10:06:01;16.98;;;5.35;;
55067;SDS011;40965;52.368;9.712;2024-02-21T10:08:28;9.75;;;4.60;;
55067;SDS011;40965;52.368;9.712;2024-02-21T10:10:55;8.48;;;4.72;;
55067;SDS011;40965;52.368;9.712;2024-02-21T10:13:28;7.18;;;4.70;;
55067;SDS011;40965;52.368;9.712;2024-02-21T10:16:02;7.18;;;4.10;;
55067;SDS011;40965;52.368;9.712;2024-02-21T10:18:30;7.47;;;3.75;;
55067;SDS011;40965;52.368;9.712;2024-02-21T10:21:05;5.10;;;3.88;;
55067;SDS011;40965;52.368;9.712;2024-02-21T10:23:51;8.02;;;4.30;;
55067;SDS011;40965;52.368;9.712;2024-02-21T10:26:18;15.75;;;4.57;;
55067;SDS011;40965;52.368;9.712;2024-02-21T10:28:46;10.63;;;4.57;;
55067;SDS011;40965;52.368;9.712;2024-02-21T10:31:26;9.82;;;4.40;;
55067;SDS011;40965;52.368;9.712;2024-02-21T10:33:58;11.23;;;5.88;;
55067;SDS011;40965;52.368;9.712;2024-02-21T10:36:28;8.77;;;3.67;;
55067;SDS011;40965;52.368;9.712;2024-02-21T10:38:55;7.07;;;4.15;;
55067;SDS011;40965;52.368;9.712;2024-02-21T10:41:22;8.07;;;3.63;;
55067;SDS011;40965;52.368;9.712;2024-02-21T10:43:51;6.97;;;3.28;;
55067;SDS011;40965;52.368;9.712;2024-02-21T10:46:22;9.52;;;3.20;;
55067;SDS011;40965;52.368;9.712;2024-02-21T10:49:33;7.70;;;3.70;;
55067;SDS011;40965;52.368;9.712;2024-02-21T10:51:50;6.75;;;3.17;;
55067;SDS011;40965;52.368;9.712;2024-02-21T10:54:39;6.88;;;3.47;;
55067;SDS011;40965;52.368;9.712;2024-02-21T10:57:22;3.70;;;2.10;;
55067;SDS011;40965;52.368;9.712;2024-02-21T10:59:48;8.27;;;4.20;;
55067;SDS011;40965;52.368;9.712;2024-02-21T11:02:16;6.40;;;2.20;;
55067;SDS011;40965;52.368;9.712;2024-02-21T11:04:43;8.10;;;3.65;;
55067;SDS011;40965;52.368;9.712;2024-02-21T11:07:10;6.90;;;2.58;;
55067;SDS011;40965;52.368;9.712;2024-02-21T11:09:37;5.47;;;2.75;;
55067;SDS011;40965;52.368;9.712;2024-02-21T11:12:04;5.40;;;3.65;;
55067;SDS011;40965;52.368;9.712;2024-02-21T11:14:33;12.60;;;3.45;;
55067;SDS011;40965;52.368;9.712;2024-02-21T11:17:02;7.07;;;3.67;;
55067;SDS011;40965;52.368;9.712;2024-02-21T11:19:29;4.43;;;2.20;;
55067;SDS011;40965;52.368;9.712;2024-02-21T11:21:56;7.45;;;2.70;;
55067;SDS011;40965;52.368;9.712;2024-02-21T11:24:26;7.55;;;2.58;;
55067;SDS011;40965;52.368;9.712;2024-02-21T11:26:55;4.05;;;2.47;;
55067;SDS011;40965;52.368;9.712;2024-02-21T11:29:26;7.95;;;2.85;;
55067;SDS011;40965;52.368;9.712;2024-02-21T11:31:54;11.77;;;2.60;;
55067;SDS011;40965;52.368;9.712;2024-02-21T11:34:21;8.18;;;2.50;;
55067;SDS011;40965;52.368;9.712;2024-02-21T11:36:49;5.30;;;2.30;;
55067;SDS011;40965;52.368;9.712;2024-02-21T11:39:26;8.18;;;2.65;;
55067;SDS011;40965;52.368;9.712;2024-02-21T11:42:05;4.68;;;1.90;;
55067;SDS011;40965;52.368;9.712;2024-02-21T11:44:34;5.80;;;2.40;;
55067;SDS011;40965;52.368;9.712;2024-02-21T11:47:03;7.18;;;2.60;;
55067;SDS011;40965;52.368;9.712;2024-02-21T11:49:30;4.18;;;1.77;;
55067;SDS011;40965;52.368;9.712;2024-02-21T11:51:57;4.63;;;1.92;;
55067;SDS011;40965;52.368;9.712;2024-02-21T11:54:29;4.28;;;3.10;;
55067;SDS011;40965;52.368;9.712;2024-02-21T11:56:56;4.95;;;2.10;;
55067;SDS011;40965;52.368;9.712;2024-02-21T11:59:23;7.10;;;3.00;;
55067;SDS011;40965;52.368;9.712;2024-02-21T12:01:49;4.68;;;2.17;;
55067;SDS011;40965;52.368;9.712;2024-02-21T12:04:17;3.47;;;2.00;;
55067;SDS011;40965;52.368;9.712;2024-02-21T12:06:45;3.20;;;2.20;;
55067;SDS011;40965;52.368;9.712;2024-02-21T12:09:18;3.75;;;1.55;;
55067;SDS011;40965;52.368;9.712;2024-02-21T12:11:45;2.95;;;2.08;;
55067;SDS011;40965;52.368;9.712;2024-02-21T12:14:15;2.20;;;2.05;;
55067;SDS011;40965;52.368;9.712;2024-02-21T12:16:42;3.25;;;2.50;;
55067;SDS011;40965;52.368;9.712;2024-02-21T12:19:12;5.65;;;2.42;;
55067;SDS011;40965;52.368;9.712;2024-02-21T12:21:42;4.40;;;2.60;;
55067;SDS011;40965;52.368;9.712;2024-02-21T12:24:17;4.03;;;2.00;;
55067;SDS011;40965;52.368;9.712;2024-02-21T12:26:49;5.50;;;2.17;;
55067;SDS011;40965;52.368;9.712;2024-02-21T12:29:17;5.07;;;2.78;;
55067;SDS011;40965;52.368;9.712;2024-02-21T12:31:47;7.20;;;1.90;;
55067;SDS011;40965;52.368;9.712;2024-02-21T12:34:14;7.13;;;3.33;;
55067;SDS011;40965;52.368;9.712;2024-02-21T12:36:44;4.32;;;2.80;;
55067;SDS011;40965;52.368;9.712;2024-02-21T12:39:12;4.03;;;2.67;;
55067;SDS011;40965;52.368;9.712;2024-02-21T12:41:39;5.15;;;2.78;;
55067;SDS011;40965;52.368;9.712;2024-02-21T12:44:07;4.55;;;2.55;;
55067;SDS011;40965;52.368;9.712;2024-02-21T12:46:34;4.28;;;3.17;;
55067;SDS011;40965;52.368;9.712;2024-02-21T12:49:01;4.30;;;3.33;;
55067;SDS011;40965;52.368;9.712;2024-02-21T12:51:32;12.05;;;4.72;;
55067;SDS011;40965;52.368;9.712;2024-02-21T12:53:58;6.43;;;3.75;;
55067;SDS011;40965;52.368;9.712;2024-02-21T12:56:26;6.72;;;4.18;;
55067;SDS011;40965;52.368;9.712;2024-02-21T12:58:53;7.47;;;3.97;;
55067;SDS011;40965;52.368;9.712;2024-02-21T13:01:19;7.05;;;4.30;;
55067;SDS011;40965;52.368;9.712;2024-02-21T13:03:46;6.43;;;3.92;;
55067;SDS011;40965;52.368;9.712;2024-02-21T13:06:13;9.13;;;4.60;;
55067;SDS011;40965;52.368;9.712;2024-02-21T13:08:40;6.57;;;4.75;;
55067;SDS011;40965;52.368;9.712;2024-02-21T13:11:07;8.30;;;4.70;;
55067;SDS011;40965;52.368;9.712;2024-02-21T13:13:33;7.47;;;4.63;;
55067;SDS011;40965;52.368;9.712;2024-02-21T13:16:00;9.32;;;4.90;;
55067;SDS011;40965;52.368;9.712;2024-02-21T13:18:28;10.27;;;5.07;;
55067;SDS011;40965;52.368;9.712;2024-02-21T13:20:54;9.68;;;4.95;;
55067;SDS011;40965;52.368;9.712;2024-02-21T13:23:21;6.82;;;4.68;;
55067;SDS011;40965;52.368;9.712;2024-02-21T13:25:47;7.57;;;5.38;;
55067;SDS011;40965;52.368;9.712;2024-02-21T13:28:14;5.45;;;4.28;;
55067;SDS011;40965;52.368;9.712;2024-02-21T13:30:44;8.73;;;4.40;;
55067;SDS011;40965;52.368;9.712;2024-02-21T13:33:11;7.32;;;4.28;;
55067;SDS011;40965;52.368;9.712;2024-02-21T13:35:37;6.65;;;4.22;;
55067;SDS011;40965;52.368;9.712;2024-02-21T13:38:04;5.70;;;3.72;;
55067;SDS011;40965;52.368;9.712;2024-02-21T13:40:30;4.55;;;3.97;;
55067;SDS011;40965;52.368;9.712;2024-02-21T13:42:57;6.85;;;3.97;;
55067;SDS011;40965;52.368;9.712;2024-02-21T13:45:24;6.90;;;3.78;;
55067;SDS011;40965;52.368;9.712;2024-02-21T13:47:50;6.60;;;4.30;;
55067;SDS011;40965;52.368;9.712;2024-02-21T13:50:17;4.05;;;3.55;;
55067;SDS011;40965;52.368;9.712;2024-02-21T13:52:44;3.83;;;3.30;;
55067;SDS011;40965;52.368;9.712;2024-02-21T13:55:11;5.07;;;3.13;;
55067;SDS011;40965;52.368;9.712;2024-02-21T13:57:40;6.88;;;4.05;;
55067;SDS011;40965;52.368;9.712;2024-02-21T14:00:07;5.85;;;3.78;;
55067;SDS011;40965;52.368;9.712;2024-02-21T14:02:35;7.00;;;2.85;;
55067;SDS011;40965;52.368;9.712;2024-02-21T14:05:03;8.93;;;2.58;;
55067;SDS011;40965;52.368;9.712;2024-02-21T14:07:32;3.80;;;2.70;;
55067;SDS011;40965;52.368;9.712;2024-02-21T14:09:59;6.07;;;4.00;;
55067;SDS011;40965;52.368;9.712;2024-02-21T14:12:25;7.05;;;3.42;;
55067;SDS011;40965;52.368;9.712;2024-02-21T14:14:52;5.15;;;2.72;;
55067;SDS011;40965;52.368;9.712;2024-02-21T14:17:20;4.50;;;2.95;;
55067;SDS011;40965;52.368;9.712;2024-02-21T14:19:46;6.35;;;2.97;;
55067;SDS011;40965;52.368;9.712;2024-02-21T14:22:13;5.40;;;2.38;;
55067;SDS011;40965;52.368;9.712;2024-02-21T14:24:39;5.18;;;2.00;;
55067;SDS011;40965;52.368;9.712;2024-02-21T14:27:07;5.45;;;2.35;;
55067;SDS011;40965;52.368;9.712;2024-02-21T14:29:35;4.53;;;1.88;;
55067;SDS011;40965;52.368;9.712;2024-02-21T14:32:02;2.88;;;1.55;;
55067;SDS011;40965;52.368;9.712;2024-02-21T14:34:30;4.10;;;2.33;;
55067;SDS011;40965;52.368;9.712;2024-02-21T14:36:56;6.60;;;1.77;;